Time;durP1;ratioP1;P1;durP2;ratioP2;P2;SDS_P1;SDS_P2;PMS_P1;PMS_P2;Temp;Humidity;BMP_temperature;BMP_pressure;BME280_temperature;BME280_humidity;BME280_pressure;Samples;Min_cycle;Max_cycle;Signal;HPM_P1;HPM_P2
2021/12/03 00:01:13;;;;;;;7.17;4.37;;;;;;;0.60;100.00;97553.28;5135463;27;20217;-65
2021/12/03 00:03:40;;;;;;;4.77;3.83;;;;;;;0.63;100.00;97554.94;5135684;27;20237;-66
2021/12/03 00:06:07;;;;;;;6.00;4.60;;;;;;;0.68;100.00;97563.41;5136581;27;20205;-65
2021/12/03 00:08:35;;;;;;;7.30;4.90;;;;;;;0.65;100.00;97563.50;5134071;27;20675;-66
2021/12/03 00:11:03;;;;;;;8.97;5.43;;;;;;;0.67;100.00;97564.28;5136605;27;20216;-66
2021/12/03 00:13:31;;;;;;;8.27;4.63;;;;;;;0.64;100.00;97575.69;5136889;27;20220;-65
2021/12/03 00:16:00;;;;;;;7.87;5.00;;;;;;;0.69;100.00;97581.53;5136413;27;20214;-66
2021/12/03 00:18:27;;;;;;;7.60;4.60;;;;;;;0.60;100.00;97586.22;5135644;27;20213;-66
2021/12/03 00:20:55;;;;;;;6.63;4.93;;;;;;;0.67;100.00;97593.75;5136666;27;20217;-66
2021/12/03 00:23:24;;;;;;;6.27;4.97;;;;;;;0.60;100.00;97597.50;5136554;27;20221;-66
2021/12/03 00:25:52;;;;;;;11.40;5.50;;;;;;;0.58;100.00;97599.31;5134378;27;20238;-65
2021/12/03 00:28:19;;;;;;;6.77;5.27;;;;;;;0.65;100.00;97605.97;5136367;27;20687;-65
2021/12/03 00:30:45;;;;;;;8.27;5.30;;;;;;;0.66;100.00;97612.84;5136292;27;20213;-66
2021/12/03 00:33:12;;;;;;;9.30;5.27;;;;;;;0.72;100.00;97616.97;5136547;27;20220;-65
2021/12/03 00:35:39;;;;;;;7.07;5.10;;;;;;;0.84;100.00;97616.47;5136416;27;20205;-65
2021/12/03 00:38:06;;;;;;;6.40;5.20;;;;;;;0.79;100.00;97621.88;5136423;27;20213;-65
2021/12/03 00:40:36;;;;;;;9.13;5.80;;;;;;;0.85;100.00;97624.25;5136110;27;20213;-65
2021/12/03 00:43:05;;;;;;;9.53;5.77;;;;;;;0.94;100.00;97631.69;5136240;27;20206;-65
2021/12/03 00:45:32;;;;;;;8.17;6.00;;;;;;;1.01;100.00;97633.16;5136239;27;20249;-66
2021/12/03 00:47:59;;;;;;;9.90;6.03;;;;;;;1.05;100.00;97642.50;5136066;27;20266;-65
2021/12/03 00:50:27;;;;;;;7.67;5.40;;;;;;;1.15;100.00;97648.19;5136138;27;20585;-65
2021/12/03 00:52:54;;;;;;;8.50;5.07;;;;;;;1.14;100.00;97647.38;5134428;27;20560;-65
2021/12/03 00:55:23;;;;;;;9.43;5.10;;;;;;;1.08;100.00;97652.81;5136280;27;20294;-65
2021/12/03 00:57:50;;;;;;;7.30;5.57;;;;;;;1.09;100.00;97661.44;5135934;27;20209;-65
2021/12/03 01:00:22;;;;;;;7.37;5.40;;;;;;;1.19;100.00;97661.03;5135746;27;20221;-65
2021/12/03 01:02:49;;;;;;;7.37;4.87;;;;;;;1.18;100.00;97669.72;5135721;27;20662;-65
2021/12/03 01:05:15;;;;;;;9.77;5.70;;;;;;;1.21;100.00;97674.84;5134808;27;20233;-65
2021/12/03 01:07:42;;;;;;;7.77;4.93;;;;;;;1.24;100.00;97668.66;5135450;27;20214;-65
2021/12/03 01:10:09;;;;;;;6.40;4.97;;;;;;;1.24;100.00;97672.09;5136159;27;20214;-65
2021/12/03 01:12:37;;;;;;;7.40;5.63;;;;;;;1.19;100.00;97666.25;5135415;27;20220;-65
2021/12/03 01:15:06;;;;;;;8.67;5.50;;;;;;;1.15;100.00;97672.47;5135482;27;20571;-65
2021/12/03 01:17:34;;;;;;;8.50;6.13;;;;;;;1.10;100.00;97677.00;5133706;27;20682;-65
2021/12/03 01:20:04;;;;;;;8.03;5.90;;;;;;;1.09;100.00;97685.72;5135409;27;20210;-65
2021/12/03 01:22:31;;;;;;;7.17;5.60;;;;;;;1.09;100.00;97685.72;5135502;27;20211;-65
2021/12/03 01:24:57;;;;;;;6.97;5.27;;;;;;;1.09;100.00;97696.13;5135433;27;20245;-65
2021/12/03 01:27:24;;;;;;;7.90;5.13;;;;;;;1.10;100.00;97689.19;5135365;27;20213;-66
2021/12/03 01:29:50;;;;;;;8.17;5.60;;;;;;;1.05;100.00;97699.75;5135019;27;20216;-65
2021/12/03 01:32:17;;;;;;;9.73;6.43;;;;;;;1.03;100.00;97706.78;5135298;27;20209;-65
2021/12/03 01:34:44;;;;;;;8.73;5.97;;;;;;;0.99;100.00;97697.38;5134857;27;20210;-66
2021/12/03 01:37:11;;;;;;;8.13;5.77;;;;;;;1.03;100.00;97701.56;5134207;27;20582;-66
2021/12/03 01:39:37;;;;;;;6.83;5.33;;;;;;;0.99;100.00;97699.16;5135447;27;20217;-66
2021/12/03 01:42:04;;;;;;;7.50;5.73;;;;;;;0.90;100.00;97705.56;5135035;27;20594;-66
2021/12/03 01:44:31;;;;;;;6.83;5.30;;;;;;;0.83;100.00;97704.09;5133676;27;20245;-66
2021/12/03 01:46:57;;;;;;;8.33;5.23;;;;;;;0.70;100.00;97700.25;5135095;27;20265;-66
2021/12/03 01:49:24;;;;;;;9.77;6.40;;;;;;;0.62;100.00;97701.44;5134862;27;20214;-65
2021/12/03 01:51:52;;;;;;;9.43;5.97;;;;;;;0.66;100.00;97711.66;5134767;27;20233;-66
2021/12/03 01:54:18;;;;;;;8.33;6.03;;;;;;;0.63;100.00;97710.94;5134825;27;20236;-66
2021/12/03 01:56:45;;;;;;;8.23;5.70;;;;;;;0.61;100.00;97700.59;5134800;27;20221;-66
2021/12/03 01:59:11;;;;;;;7.53;6.10;;;;;;;0.56;100.00;97699.91;5133774;27;20213;-66
2021/12/03 02:01:38;;;;;;;9.23;6.13;;;;;;;0.55;100.00;97703.41;5133642;27;20221;-66
2021/12/03 02:04:05;;;;;;;9.60;6.07;;;;;;;0.50;100.00;97700.13;5133315;27;20206;-66
2021/12/03 02:06:32;;;;;;;9.97;6.13;;;;;;;0.48;100.00;97701.94;5131977;27;20264;-66
2021/12/03 02:09:01;;;;;;;8.77;5.80;;;;;;;0.50;100.00;97697.53;5131778;27;20585;-66
2021/12/03 02:11:29;;;;;;;11.37;6.30;;;;;;;0.49;100.00;97708.00;5133220;27;20209;-66
2021/12/03 02:13:55;;;;;;;9.47;6.10;;;;;;;0.52;100.00;97698.34;5134262;27;20210;-66
2021/12/03 02:16:22;;;;;;;7.57;5.77;;;;;;;0.54;100.00;97698.25;5134487;27;20581;-66
2021/12/03 02:18:50;;;;;;;9.93;6.20;;;;;;;0.49;100.00;97703.63;5134870;27;20213;-66
2021/12/03 02:21:20;;;;;;;8.93;6.17;;;;;;;0.47;100.00;97713.25;5133211;27;20210;-66
2021/12/03 02:23:48;;;;;;;9.73;6.27;;;;;;;0.52;100.00;97713.06;5134728;27;20220;-66
2021/12/03 02:26:15;;;;;;;10.77;6.23;;;;;;;0.48;100.00;97722.72;5134257;27;20247;-66
2021/12/03 02:28:44;;;;;;;8.33;5.67;;;;;;;0.50;100.00;97731.31;5134069;27;20220;-66
2021/12/03 02:31:12;;;;;;;10.83;5.63;;;;;;;0.47;100.00;97740.97;5134113;27;20209;-66
2021/12/03 02:33:39;;;;;;;10.87;7.03;;;;;;;0.44;100.00;97736.72;5134248;27;20220;-66
2021/12/03 02:36:07;;;;;;;11.97;6.63;;;;;;;0.37;100.00;97730.06;5132830;27;20205;-66
2021/12/03 02:38:35;;;;;;;8.73;6.03;;;;;;;0.37;100.00;97745.66;5134295;27;20210;-66
2021/12/03 02:41:02;;;;;;;9.73;6.27;;;;;;;0.30;100.00;97741.59;5133856;27;20677;-66
2021/12/03 02:43:29;;;;;;;8.73;6.60;;;;;;;0.27;100.00;97744.31;5133912;27;20223;-66
2021/12/03 02:45:57;;;;;;;10.03;6.57;;;;;;;0.27;100.00;97754.69;5133717;27;20245;-66
2021/12/03 02:48:25;;;;;;;10.63;6.73;;;;;;;0.32;100.00;97755.34;5133625;27;20213;-66
2021/12/03 02:50:52;;;;;;;9.33;6.67;;;;;;;0.30;100.00;97745.91;5133820;27;20216;-66
2021/12/03 02:53:19;;;;;;;9.17;6.47;;;;;;;0.24;100.00;97752.19;5118742;27;20217;-65
2021/12/03 02:55:47;;;;;;;10.90;6.47;;;;;;;0.19;100.00;97751.50;5134096;28;20235;-66
2021/12/03 02:58:14;;;;;;;8.27;6.37;;;;;;;0.09;100.00;97754.47;5133697;28;20209;-66
2021/12/03 03:00:42;;;;;;;9.87;6.77;;;;;;;0.01;100.00;97761.69;5133846;28;20212;-66
2021/12/03 03:03:09;;;;;;;10.47;6.87;;;;;;;-0.04;100.00;97764.41;5132558;28;20574;-66
2021/12/03 03:05:35;;;;;;;10.50;6.97;;;;;;;0.00;100.00;97765.19;5133726;27;20239;-66
2021/12/03 03:08:03;;;;;;;10.47;7.10;;;;;;;-0.07;100.00;97764.53;5133602;28;20243;-66
2021/12/03 03:10:33;;;;;;;10.80;6.70;;;;;;;-0.17;100.00;97768.31;5133964;28;20217;-66
2021/12/03 03:13:01;;;;;;;10.17;6.27;;;;;;;-0.14;100.00;97761.34;5133509;28;20676;-66
2021/12/03 03:15:28;;;;;;;9.80;6.67;;;;;;;-0.11;100.00;97760.31;5132588;28;20223;-66
2021/12/03 03:17:55;;;;;;;9.47;6.17;;;;;;;-0.13;100.00;97764.72;5133736;28;20217;-66
2021/12/03 03:20:22;;;;;;;11.20;7.57;;;;;;;-0.19;100.00;97758.88;5133566;28;20209;-66
2021/12/03 03:22:50;;;;;;;9.13;6.80;;;;;;;-0.11;100.00;97755.13;5133517;28;20674;-66
2021/12/03 03:25:20;;;;;;;8.57;6.67;;;;;;;-0.14;100.00;97762.16;5132551;28;20244;-66
2021/12/03 03:27:47;;;;;;;10.67;7.17;;;;;;;-0.13;100.00;97769.91;5131745;28;20213;-66
2021/12/03 03:30:18;;;;;;;11.80;6.67;;;;;;;-0.13;100.00;97770.81;5133544;28;20208;-66
2021/12/03 03:32:45;;;;;;;9.93;7.00;;;;;;;-0.06;100.00;97771.41;5133201;28;20299;-66
2021/12/03 03:35:12;;;;;;;10.90;6.73;;;;;;;0.09;100.00;97776.13;5132273;28;20209;-66
2021/12/03 03:37:39;;;;;;;13.90;7.77;;;;;;;0.08;100.00;97774.38;5133678;28;20228;-66
2021/12/03 03:40:06;;;;;;;10.80;7.00;;;;;;;0.22;100.00;97782.59;5133235;28;20229;-66
2021/12/03 03:42:33;;;;;;;9.17;6.97;;;;;;;0.34;100.00;97789.09;5133504;28;20569;-66
2021/12/03 03:45:00;;;;;;;9.77;6.80;;;;;;;0.49;100.00;97789.41;5133374;28;20760;-66
2021/12/03 03:47:28;;;;;;;9.47;6.93;;;;;;;0.54;100.00;97795.31;5133455;28;20219;-66
2021/12/03 03:49:54;;;;;;;9.67;6.63;;;;;;;0.54;100.00;97794.44;5133562;28;20218;-66
2021/12/03 03:52:21;;;;;;;10.53;7.07;;;;;;;0.56;100.00;97803.91;5133507;28;20232;-66
2021/12/03 03:54:48;;;;;;;10.07;7.47;;;;;;;0.55;100.00;97802.19;5130555;28;20221;-66
2021/12/03 03:57:14;;;;;;;8.70;6.40;;;;;;;0.59;100.00;97803.81;5133377;28;20206;-66
2021/12/03 03:59:41;;;;;;;16.10;8.03;;;;;;;0.58;100.00;97802.13;5134268;27;20209;-66
2021/12/03 04:02:07;;;;;;;11.33;7.30;;;;;;;0.56;100.00;97809.09;5137366;27;20224;-66
2021/12/03 04:04:35;;;;;;;9.97;7.40;;;;;;;0.45;100.00;97811.22;5137179;27;20562;-66
2021/12/03 04:07:02;;;;;;;8.77;7.00;;;;;;;0.37;100.00;97813.22;5137103;27;20220;-65
2021/12/03 04:09:28;;;;;;;10.67;7.10;;;;;;;0.31;100.00;97815.22;5136809;27;20224;-66
2021/12/03 04:11:55;;;;;;;9.73;7.53;;;;;;;0.25;100.00;97818.84;5136818;27;20209;-65
2021/12/03 04:14:21;;;;;;;11.07;7.47;;;;;;;0.29;100.00;97828.25;5136685;27;20206;-65
2021/12/03 04:16:48;;;;;;;10.13;7.00;;;;;;;0.28;100.00;97828.28;5136666;27;20213;-65
2021/12/03 04:19:15;;;;;;;12.13;7.20;;;;;;;0.29;100.00;97830.84;5135358;27;20356;-65
2021/12/03 04:21:43;;;;;;;9.77;7.30;;;;;;;0.36;100.00;97836.66;5136661;27;20219;-66
2021/12/03 04:24:09;;;;;;;9.40;6.67;;;;;;;0.39;100.00;97841.78;5136409;27;20217;-66
2021/12/03 04:26:35;;;;;;;10.77;7.40;;;;;;;0.43;100.00;97848.59;5136350;27;20240;-66
2021/12/03 04:29:02;;;;;;;9.50;7.00;;;;;;;0.51;100.00;97852.59;5136468;27;20234;-66
2021/12/03 04:31:29;;;;;;;10.30;6.73;;;;;;;0.61;100.00;97845.38;5136170;27;20225;-65
2021/12/03 04:33:56;;;;;;;10.87;7.50;;;;;;;0.58;100.00;97856.72;5136443;27;20213;-66
2021/12/03 04:36:23;;;;;;;10.07;6.90;;;;;;;0.69;100.00;97851.97;5136121;27;20216;-66
2021/12/03 04:38:50;;;;;;;9.23;6.23;;;;;;;0.72;100.00;97856.22;5136492;27;20221;-66
2021/12/03 04:41:17;;;;;;;9.13;6.83;;;;;;;0.71;100.00;97850.19;5136297;27;20222;-66
2021/12/03 04:43:43;;;;;;;8.10;6.60;;;;;;;0.78;100.00;97856.88;5136015;27;20241;-66
2021/12/03 04:46:10;;;;;;;9.23;6.83;;;;;;;0.79;100.00;97862.91;5134339;27;20732;-66
2021/12/03 04:48:37;;;;;;;8.90;6.13;;;;;;;0.88;100.00;97858.25;5136018;27;20209;-66
2021/12/03 04:51:03;;;;;;;7.73;6.23;;;;;;;0.92;100.00;97865.03;5134855;27;20209;-66
2021/12/03 04:53:30;;;;;;;10.57;6.87;;;;;;;1.02;100.00;97871.59;5135965;27;20212;-66
2021/12/03 04:55:58;;;;;;;9.93;6.90;;;;;;;1.05;100.00;97866.28;5136014;27;20217;-66
2021/12/03 04:58:24;;;;;;;7.63;6.13;;;;;;;1.11;100.00;97875.63;5136129;27;20221;-66
2021/12/03 05:00:54;;;;;;;9.63;6.57;;;;;;;1.10;100.00;97885.19;5136121;27;20210;-66
2021/12/03 05:03:23;;;;;;;8.00;6.10;;;;;;;1.13;100.00;97890.28;5135563;27;20220;-66
2021/12/03 05:05:53;;;;;;;8.03;5.60;;;;;;;1.14;100.00;97886.78;5135855;27;20234;-66
2021/12/03 05:08:19;;;;;;;7.47;5.77;;;;;;;1.18;100.00;97888.34;5135840;27;20220;-66
2021/12/03 05:10:46;;;;;;;8.37;6.17;;;;;;;1.15;100.00;97878.06;5135420;27;20224;-66
2021/12/03 05:13:16;;;;;;;6.90;5.63;;;;;;;1.16;100.00;97882.34;5134151;27;20220;-66
2021/12/03 05:15:44;;;;;;;8.47;5.73;;;;;;;1.09;100.00;97880.03;5135439;27;20633;-66
2021/12/03 05:18:13;;;;;;;7.90;6.47;;;;;;;1.05;100.00;97881.88;5135384;27;20677;-66
2021/12/03 05:20:40;;;;;;;7.97;6.10;;;;;;;1.01;100.00;97885.53;5135641;27;20217;-66
2021/12/03 05:23:07;;;;;;;9.40;6.90;;;;;;;1.01;100.00;97889.88;5135640;27;20216;-66
2021/12/03 05:25:34;;;;;;;8.90;6.43;;;;;;;1.02;100.00;97892.41;5135192;27;20229;-66
2021/12/03 05:28:02;;;;;;;10.00;7.00;;;;;;;1.06;100.00;97894.00;5135496;27;20220;-66
2021/12/03 05:30:30;;;;;;;7.77;6.47;;;;;;;1.14;100.00;97907.59;5135396;27;20596;-66
2021/12/03 05:32:57;;;;;;;7.30;5.50;;;;;;;1.16;100.00;97908.38;5135233;27;20213;-66
2021/12/03 05:35:24;;;;;;;7.90;6.13;;;;;;;1.21;100.00;97905.59;5135245;27;20213;-66
2021/12/03 05:37:51;;;;;;;7.67;5.77;;;;;;;1.25;100.00;97905.47;5133258;27;20217;-66
2021/12/03 05:40:18;;;;;;;8.57;6.30;;;;;;;1.22;100.00;97904.72;5135269;27;20211;-66
2021/12/03 05:42:46;;;;;;;7.53;6.30;;;;;;;1.20;100.00;97907.38;5135058;27;20235;-66
2021/12/03 05:45:14;;;;;;;7.03;6.03;;;;;;;1.21;100.00;97913.41;5135194;27;20272;-66
2021/12/03 05:47:43;;;;;;;8.77;5.80;;;;;;;1.18;100.00;97919.56;5135072;27;20256;-66
2021/12/03 05:50:11;;;;;;;6.93;5.73;;;;;;;1.14;100.00;97917.16;5134784;27;20244;-66
2021/12/03 05:52:38;;;;;;;8.00;6.23;;;;;;;1.03;100.00;97920.13;5134713;27;20225;-66
2021/12/03 05:55:06;;;;;;;8.80;6.07;;;;;;;0.94;100.00;97920.47;5134994;27;20214;-66
2021/12/03 05:57:33;;;;;;;8.03;5.87;;;;;;;0.90;100.00;97921.47;5134919;27;20232;-66
2021/12/03 05:59:59;;;;;;;7.73;6.17;;;;;;;0.89;100.00;97927.56;5134631;27;20362;-66
2021/12/03 06:02:26;;;;;;;8.00;5.73;;;;;;;0.92;100.00;97937.03;5134840;27;20561;-66
2021/12/03 06:04:54;;;;;;;10.27;6.30;;;;;;;0.82;100.00;97939.09;5131469;27;20210;-66
2021/12/03 06:07:20;;;;;;;8.97;5.57;;;;;;;0.89;100.00;97948.38;5134334;27;20717;-66
2021/12/03 06:09:47;;;;;;;12.07;6.57;;;;;;;0.94;100.00;97941.28;5134588;27;20217;-66
2021/12/03 06:12:13;;;;;;;8.57;6.03;;;;;;;0.97;100.00;97954.16;5134213;27;20217;-66
2021/12/03 06:14:40;;;;;;;9.10;6.40;;;;;;;0.89;100.00;97956.19;5134615;27;20221;-66
2021/12/03 06:17:06;;;;;;;8.83;6.20;;;;;;;0.84;100.00;97955.50;5134145;27;20670;-66
2021/12/03 06:19:33;;;;;;;8.27;6.63;;;;;;;0.82;100.00;97954.72;5134175;27;20667;-66
2021/12/03 06:22:01;;;;;;;8.30;6.80;;;;;;;0.81;100.00;97950.38;5133912;27;20211;-66
2021/12/03 06:24:27;;;;;;;10.40;6.60;;;;;;;0.75;100.00;97953.19;5133962;27;20210;-66
2021/12/03 06:26:54;;;;;;;9.53;6.97;;;;;;;0.70;100.00;97951.66;5134171;27;20245;-66
2021/12/03 06:29:20;;;;;;;8.93;6.20;;;;;;;0.52;100.00;97944.44;5132458;27;20217;-66
2021/12/03 06:31:47;;;;;;;8.60;6.10;;;;;;;0.39;100.00;97966.56;5133971;27;20209;-66
2021/12/03 06:34:13;;;;;;;8.20;6.30;;;;;;;0.21;100.00;97968.00;5118617;27;20213;-66
2021/12/03 06:36:40;;;;;;;6.83;5.73;;;;;;;0.09;100.00;97968.38;5134226;27;20240;-66
2021/12/03 06:39:08;;;;;;;8.20;6.63;;;;;;;-0.11;100.00;97968.09;5133863;27;20209;-66
2021/12/03 06:41:34;;;;;;;7.77;5.83;;;;;;;-0.25;100.00;97964.19;5134247;27;20220;-66
2021/12/03 06:44:01;;;;;;;9.87;5.50;;;;;;;-0.31;100.00;97971.34;5134113;27;20233;-66
2021/12/03 06:46:27;;;;;;;10.80;5.77;;;;;;;-0.43;100.00;97974.28;5133998;27;20237;-65
2021/12/03 06:48:54;;;;;;;7.67;6.00;;;;;;;-0.40;100.00;97966.41;5133799;27;20685;-66
2021/12/03 06:51:20;;;;;;;9.07;6.07;;;;;;;-0.46;100.00;97982.16;5133682;27;20663;-66
2021/12/03 06:53:56;;;;;;;6.80;5.40;;;;;;;-0.47;100.00;97985.63;5133894;27;20220;-65
2021/12/03 06:56:32;;;;;;;9.37;6.07;;;;;;;-0.45;100.00;97984.69;5132301;28;20215;-66
2021/12/03 06:58:58;;;;;;;8.07;5.90;;;;;;;-0.28;100.00;97988.50;5133879;28;20583;-66
2021/12/03 07:01:25;;;;;;;8.80;5.50;;;;;;;-0.13;100.00;97991.56;5134040;28;20210;-65
2021/12/03 07:03:52;;;;;;;7.90;5.43;;;;;;;-0.03;100.00;97997.31;5133919;28;20217;-66
2021/12/03 07:06:18;;;;;;;9.17;5.13;;;;;;;0.14;100.00;98002.81;5133562;27;20724;-66
2021/12/03 07:08:45;;;;;;;6.57;4.90;;;;;;;0.50;100.00;98000.88;5133807;28;20213;-66
2021/12/03 07:11:11;;;;;;;6.40;4.83;;;;;;;0.57;100.00;98003.19;5133639;28;20220;-66
2021/12/03 07:13:39;;;;;;;6.27;4.57;;;;;;;0.74;100.00;98015.69;5133593;28;20667;-66
2021/12/03 07:16:06;;;;;;;5.20;3.90;;;;;;;0.70;99.96;98017.53;5133502;28;20220;-66
2021/12/03 07:18:33;;;;;;;3.33;3.03;;;;;;;0.73;94.71;98025.22;5133610;28;20252;-66
2021/12/03 07:20:59;;;;;;;3.63;2.93;;;;;;;0.68;95.80;98024.50;5131901;27;20205;-65
2021/12/03 07:23:26;;;;;;;5.60;2.70;;;;;;;0.66;95.35;98017.66;5133054;28;20223;-66
2021/12/03 07:25:52;;;;;;;3.23;2.70;;;;;;;0.61;95.91;98020.41;5133553;28;20213;-66
2021/12/03 07:28:19;;;;;;;4.20;3.03;;;;;;;0.50;96.30;98030.28;5134031;28;20220;-66
2021/12/03 07:30:47;;;;;;;2.90;2.50;;;;;;;0.57;96.53;98024.00;5133524;28;20219;-66
2021/12/03 07:33:16;;;;;;;4.03;3.10;;;;;;;0.53;96.03;98030.22;5118192;27;20217;-66
2021/12/03 07:35:44;;;;;;;6.07;3.50;;;;;;;0.40;97.53;98041.91;5136335;27;20213;-66
2021/12/03 07:38:11;;;;;;;3.50;2.77;;;;;;;0.31;99.33;98036.13;5137401;27;20308;-66
2021/12/03 07:40:37;;;;;;;5.00;3.50;;;;;;;0.23;99.83;98030.28;5137504;27;20217;-66
2021/12/03 07:43:04;;;;;;;4.53;3.60;;;;;;;0.26;100.00;98046.63;5122240;27;20213;-66
2021/12/03 07:45:30;;;;;;;4.23;3.47;;;;;;;0.30;100.00;98045.66;5137766;27;20244;-66
2021/12/03 07:47:58;;;;;;;6.37;3.60;;;;;;;0.46;100.00;98046.91;5135599;27;20240;-66
2021/12/03 07:50:25;;;;;;;4.90;3.70;;;;;;;0.53;100.00;98048.41;5137328;27;20205;-66
2021/12/03 07:52:51;;;;;;;4.90;3.90;;;;;;;0.53;100.00;98043.22;5137299;27;20210;-66
2021/12/03 07:55:18;;;;;;;5.50;4.03;;;;;;;0.64;100.00;98061.94;5137037;27;20304;-66
2021/12/03 07:57:44;;;;;;;7.17;4.97;;;;;;;0.71;100.00;98057.38;5136922;27;20701;-66
2021/12/03 08:00:11;;;;;;;7.53;4.40;;;;;;;0.75;100.00;98059.00;5137080;27;20220;-66
2021/12/03 08:02:38;;;;;;;6.13;4.20;;;;;;;0.82;100.00;98055.28;5136733;27;20215;-66
2021/12/03 08:05:06;;;;;;;6.77;4.60;;;;;;;0.94;100.00;98060.09;5136835;27;20206;-65
2021/12/03 08:07:33;;;;;;;7.27;4.77;;;;;;;1.07;100.00;98048.38;5136793;27;20285;-66
2021/12/03 08:10:00;;;;;;;6.27;3.90;;;;;;;1.12;98.68;98055.13;5137490;27;20224;-65
2021/12/03 08:12:26;;;;;;;5.93;4.60;;;;;;;1.22;98.23;98055.69;5136888;27;20228;-66
2021/12/03 08:14:53;;;;;;;6.13;4.27;;;;;;;1.21;97.52;98054.84;5135326;27;20209;-66
2021/12/03 08:17:19;;;;;;;4.40;3.60;;;;;;;1.06;98.19;98060.53;5136657;27;20205;-66
2021/12/03 08:19:46;;;;;;;5.53;4.07;;;;;;;0.89;98.67;98057.66;5136714;27;20220;-67
2021/12/03 08:22:14;;;;;;;4.37;3.63;;;;;;;0.86;97.91;98062.09;5134142;27;20221;-66
2021/12/03 08:24:40;;;;;;;11.47;3.70;;;;;;;0.78;98.53;98059.75;5134255;27;20701;-68
2021/12/03 08:27:07;;;;;;;9.03;4.23;;;;;;;0.74;99.63;98068.53;5135344;27;20266;-68
2021/12/03 08:29:33;;;;;;;6.53;4.00;;;;;;;0.70;97.98;98060.88;5135586;27;20210;-68
2021/12/03 08:32:00;;;;;;;7.47;3.83;;;;;;;0.76;98.17;98056.34;5132703;27;20205;-68
2021/12/03 08:34:26;;;;;;;5.53;3.63;;;;;;;0.77;98.97;98051.97;5138379;27;20589;-68
2021/12/03 08:36:53;;;;;;;5.23;4.03;;;;;;;0.77;99.85;98051.97;5138455;27;20216;-69
2021/12/03 08:39:21;;;;;;;4.37;3.77;;;;;;;0.83;99.33;98050.03;5136301;27;20586;-68
2021/12/03 08:41:48;;;;;;;5.87;3.73;;;;;;;0.84;100.00;98054.34;5138451;27;20225;-68
2021/12/03 08:44:15;;;;;;;5.77;4.00;;;;;;;0.82;100.00;98053.56;5140094;27;20289;-68
2021/12/03 08:46:41;;;;;;;5.67;4.33;;;;;;;0.84;100.00;98048.28;5136833;27;20730;-68
2021/12/03 08:49:13;;;;;;;6.17;4.03;;;;;;;0.79;100.00;98053.63;5138106;27;20713;-67
2021/12/03 08:52:09;;;;;;;6.07;4.73;;;;;;;0.78;100.00;98054.53;5138306;27;20220;-69
2021/12/03 08:54:49;;;;;;;5.63;4.17;;;;;;;0.81;100.00;98054.44;5126998;27;20624;-68
2021/12/03 08:57:17;;;;;;;6.23;4.23;;;;;;;0.81;99.93;98054.44;5138309;27;20220;-69
2021/12/03 08:59:43;;;;;;;4.90;3.40;;;;;;;0.76;98.67;98060.69;5139766;27;20698;-69
2021/12/03 09:02:10;;;;;;;5.23;3.40;;;;;;;0.82;97.86;98056.16;5137774;27;20213;-69
2021/12/03 09:04:37;;;;;;;3.67;3.07;;;;;;;0.84;98.15;98064.75;5137417;27;20216;-68
2021/12/03 09:07:05;;;;;;;3.00;2.67;;;;;;;0.84;96.51;98064.75;5135847;27;20234;-69
2021/12/03 09:09:32;;;;;;;3.17;2.57;;;;;;;0.86;97.18;98068.13;5139427;27;20225;-70
2021/12/03 09:12:00;;;;;;;2.60;2.40;;;;;;;0.96;95.64;98071.28;5137758;27;20209;-68
2021/12/03 09:14:31;;;;;;;3.20;2.17;;;;;;;0.97;96.39;98066.06;5143277;27;20208;-68
2021/12/03 09:17:04;;;;;;;3.10;2.60;;;;;;;0.95;95.77;98067.00;5141808;27;20209;-68
2021/12/03 09:19:34;;;;;;;3.63;2.80;;;;;;;0.95;96.54;98070.47;5139673;27;20273;-68
2021/12/03 09:22:01;;;;;;;3.23;2.30;;;;;;;1.06;95.57;98070.09;5136471;27;20213;-68
2021/12/03 09:24:31;;;;;;;3.13;2.23;;;;;;;1.18;95.61;98060.13;5137509;27;20267;-69
2021/12/03 09:26:59;;;;;;;3.63;2.47;;;;;;;1.49;94.76;98060.81;5137436;27;20237;-68
2021/12/03 09:29:30;;;;;;;3.00;2.43;;;;;;;1.81;92.64;98057.06;5135402;27;20689;-68
2021/12/03 09:31:58;;;;;;;2.83;2.00;;;;;;;1.91;91.04;98066.25;5136870;27;20209;-66
2021/12/03 09:34:25;;;;;;;1.97;1.80;;;;;;;2.02;89.25;98061.50;5137906;27;20266;-67
2021/12/03 09:36:52;;;;;;;2.87;1.90;;;;;;;2.05;89.83;98062.25;5138134;27;20296;-67
2021/12/03 09:39:20;;;;;;;3.10;2.17;;;;;;;2.12;88.89;98063.72;5140027;27;20227;-68
2021/12/03 09:41:46;;;;;;;2.73;2.43;;;;;;;2.21;89.46;98060.75;5138267;27;20288;-67
2021/12/03 09:44:15;;;;;;;4.20;2.30;;;;;;;2.30;89.62;98063.03;5137633;27;20237;-67
2021/12/03 09:46:42;;;;;;;5.70;2.20;;;;;;;2.50;87.40;98047.47;5138198;27;20243;-67
2021/12/03 09:49:24;;;;;;;2.23;1.90;;;;;;;2.68;86.04;98057.19;5140294;27;20208;-67
2021/12/03 09:52:02;;;;;;;2.50;2.10;;;;;;;2.79;84.88;98051.53;5137764;27;20289;-68
2021/12/03 09:54:36;;;;;;;2.53;2.00;;;;;;;2.94;85.12;98041.34;5137722;27;20237;-69
2021/12/03 09:57:07;;;;;;;2.10;1.90;;;;;;;3.07;85.14;98037.31;5134780;27;20223;-69
2021/12/03 09:59:57;;;;;;;2.03;1.83;;;;;;;3.08;84.35;98028.59;5136012;27;20613;-68
2021/12/03 10:02:36;;;;;;;2.73;2.10;;;;;;;2.96;84.38;98034.31;5136009;27;20205;-66
2021/12/03 10:05:30;;;;;;;3.63;2.37;;;;;;;2.93;85.73;98034.41;5136920;27;20244;-66
2021/12/03 10:13:43;;;;;;;2.10;1.83;;;;;;;3.41;84.14;98035.00;5117747;27;20224;-65
2021/12/03 10:16:29;;;;;;;2.73;2.13;;;;;;;3.41;83.49;98031.53;5135853;27;20220;-65
2021/12/03 10:18:57;;;;;;;2.63;1.93;;;;;;;3.43;84.69;98025.31;5122943;27;20740;-65
2021/12/03 10:21:51;;;;;;;3.33;2.40;;;;;;;3.47;84.80;98026.91;5131847;27;20266;-65
2021/12/03 10:27:29;;;;;;;2.93;2.00;;;;;;;3.47;83.08;98034.72;5131608;27;20234;-64
2021/12/03 10:30:17;;;;;;;3.20;2.40;;;;;;;3.34;82.03;98028.34;5135426;27;20210;-66
2021/12/03 10:36:04;;;;;;;2.53;2.33;;;;;;;3.02;85.31;98018.41;5128776;27;20282;-65
2021/12/03 10:41:37;;;;;;;3.27;2.20;;;;;;;2.81;87.80;98024.47;5113011;27;20685;-65
2021/12/03 10:44:13;;;;;;;2.77;2.50;;;;;;;2.73;87.92;98018.72;5130067;27;20607;-64
2021/12/03 10:46:50;;;;;;;2.67;2.40;;;;;;;2.86;89.62;98011.22;5132837;27;20253;-65
2021/12/03 10:49:36;;;;;;;4.00;2.50;;;;;;;3.00;86.41;98009.75;5134073;27;20213;-65
2021/12/03 10:52:23;;;;;;;3.87;2.60;;;;;;;3.31;85.31;98018.00;5129099;27;20725;-65
2021/12/03 10:55:13;;;;;;;3.47;2.63;;;;;;;3.58;85.77;98011.63;5128049;27;20291;-65
2021/12/03 11:00:49;;;;;;;3.93;2.53;;;;;;;3.75;83.76;97996.06;5132084;27;20690;-65
2021/12/03 11:31:35;;;;;;;4.17;2.67;;;;;;;3.46;84.73;97952.06;5139011;27;20573;-65
2021/12/03 11:37:12;;;;;;;3.70;2.70;;;;;;;3.11;85.54;97938.84;5138848;27;20548;-65
2021/12/03 11:40:07;;;;;;;3.07;2.53;;;;;;;3.14;86.42;97944.78;5141706;27;20673;-65
2021/12/03 12:01:00;;;;;;;4.97;3.03;;;;;;;3.39;86.14;97927.13;5129026;27;20353;-65
2021/12/03 13:12:25;;;;;;;4.33;2.40;;;;;;;2.47;90.15;97857.19;5135287;27;20215;-63
2021/12/03 13:18:09;;;;;;;3.17;2.67;;;;;;;2.57;90.51;97868.94;5133178;27;20304;-64
2021/12/03 13:21:20;;;;;;;3.07;2.30;;;;;;;2.72;90.73;97873.53;5131206;27;20222;-64
2021/12/03 14:37:49;;;;;;;2.57;1.97;;;;;;;2.39;91.36;97825.34;5135865;27;20271;-65
2021/12/03 14:40:38;;;;;;;2.33;1.80;;;;;;;2.33;89.65;97823.00;5134024;27;20217;-64
2021/12/03 14:46:05;;;;;;;1.77;1.37;;;;;;;2.32;89.38;97815.28;5135189;27;20257;-64
2021/12/03 14:48:49;;;;;;;5.63;2.00;;;;;;;2.26;88.37;97810.31;5131629;27;20236;-65
2021/12/03 14:57:14;;;;;;;2.50;1.57;;;;;;;2.16;88.11;97812.44;5128799;27;20297;-64
2021/12/03 14:59:51;;;;;;;2.27;1.60;;;;;;;2.11;89.45;97805.72;5130574;27;20288;-65
2021/12/03 15:02:30;;;;;;;2.77;1.43;;;;;;;2.05;89.16;97808.56;5133222;27;20212;-65
2021/12/03 15:05:05;;;;;;;1.93;1.50;;;;;;;2.06;89.50;97803.31;5133698;27;20209;-64
2021/12/03 15:07:41;;;;;;;1.43;1.33;;;;;;;1.97;90.88;97810.66;5130671;27;20268;-64
2021/12/03 15:10:14;;;;;;;1.63;1.47;;;;;;;1.91;91.13;97803.91;5132865;27;20222;-64
2021/12/03 15:21:14;;;;;;;4.40;3.00;;;;;;;1.55;94.33;97799.31;5135068;27;20847;-64
2021/12/03 15:26:41;;;;;;;12.17;8.17;;;;;;;1.38;96.11;97797.38;5127986;27;20220;-64
2021/12/03 15:29:45;;;;;;;10.93;6.87;;;;;;;1.37;95.73;97800.88;5134947;27;20240;-65
2021/12/03 15:32:15;;;;;;;3.83;3.03;;;;;;;1.32;95.64;97807.16;5127680;27;20216;-64
2021/12/03 15:34:51;;;;;;;3.80;2.97;;;;;;;1.27;96.95;97798.66;5134884;27;20213;-64
2021/12/03 15:37:36;;;;;;;8.37;3.60;;;;;;;1.26;97.29;97792.63;5136260;27;20217;-64